Time;durP1;ratioP1;P1;durP2;ratioP2;P2;SDS_P1;SDS_P2;PMS_P1;PMS_P2;Temp;Humidity;BMP_temperature;BMP_pressure;BME280_temperature;BME280_humidity;BME280_pressure;Samples;Min_cycle;Max_cycle;Signal;HPM_P1;HPM_P2
2022/03/08 00:01:20;;;;;;;26.37;13.90;;;;;;;0.21;100.00;60827.72;5115162;28;20436;-74
2022/03/08 00:06:31;;;;;;;23.60;13.07;;;;;;;1.34;100.00;60952.03;5113478;28;20443;-76
2022/03/08 00:09:04;;;;;;;22.40;13.50;;;;;;;1.47;100.00;60960.81;5115030;28;20497;-75
2022/03/08 00:11:32;;;;;;;22.93;12.63;;;;;;;-0.30;100.00;60774.25;5116813;28;20460;-72
2022/03/08 00:14:02;;;;;;;20.90;12.53;;;;;;;-0.10;100.00;60797.91;5115990;28;20779;-73
2022/03/08 00:16:33;;;;;;;22.40;13.77;;;;;;;1.24;100.00;60936.38;5098014;28;20453;-72
2022/03/08 00:19:07;;;;;;;21.23;12.67;;;;;;;1.23;100.00;60935.34;5117330;28;20437;-75
2022/03/08 00:21:36;;;;;;;23.60;12.67;;;;;;;0.16;100.00;60822.44;5116093;28;20444;-76
2022/03/08 00:24:04;;;;;;;22.93;12.97;;;;;;;1.14;100.00;60925.78;5115220;28;20973;-76
2022/03/08 00:26:31;;;;;;;23.53;13.00;;;;;;;1.10;100.00;60921.53;5114943;28;20939;-73
2022/03/08 00:29:04;;;;;;;25.00;13.83;;;;;;;-0.25;100.00;60777.03;5113830;28;20448;-75
2022/03/08 00:31:38;;;;;;;21.10;12.70;;;;;;;0.38;100.00;60845.75;5114579;28;20440;-76
2022/03/08 00:34:07;;;;;;;25.67;13.20;;;;;;;1.06;100.00;60917.31;5115575;28;20883;-76
2022/03/08 00:36:41;;;;;;;22.40;14.17;;;;;;;1.12;100.00;60926.72;5114502;28;20440;-74
2022/03/08 00:39:08;;;;;;;24.80;13.00;;;;;;;1.14;100.00;60925.78;5114839;28;20558;-74
2022/03/08 00:41:35;;;;;;;25.53;13.20;;;;;;;-0.23;100.00;60784.69;5114307;28;20441;-75
2022/03/08 00:44:08;;;;;;;24.73;13.13;;;;;;;1.21;100.00;60933.72;5114205;28;20561;-72
2022/03/08 00:46:36;;;;;;;23.80;13.33;;;;;;;1.25;100.00;60937.97;5114689;28;20429;-75
2022/03/08 00:49:05;;;;;;;24.03;13.97;;;;;;;1.17;100.00;60934.00;5114297;28;20497;-75
2022/03/08 00:51:35;;;;;;;24.57;14.07;;;;;;;1.29;100.00;60944.22;5114518;28;20524;-73
2022/03/08 00:54:09;;;;;;;20.90;12.80;;;;;;;1.08;100.00;60924.44;5113593;28;20452;-75
2022/03/08 01:08:04;;;;;;;21.17;13.80;;;;;;;0.54;100.00;60862.69;5130525;27;20545;-74
2022/03/08 01:10:32;;;;;;;20.53;13.40;;;;;;;0.86;100.00;60896.63;5109955;28;20494;-73
2022/03/08 01:13:01;;;;;;;21.60;12.63;;;;;;;0.97;100.00;60912.78;5109947;28;20433;-74
2022/03/08 01:15:28;;;;;;;21.87;12.73;;;;;;;1.02;100.00;60915.56;5109641;28;20441;-73
2022/03/08 01:17:58;;;;;;;21.80;12.93;;;;;;;1.15;100.00;60927.38;5109516;28;20429;-73
2022/03/08 01:20:29;;;;;;;21.17;12.13;;;;;;;1.12;100.00;60923.66;5109269;28;21032;-76
2022/03/08 01:22:56;;;;;;;21.33;12.60;;;;;;;0.95;100.00;60905.66;5110040;28;20494;-74
2022/03/08 01:25:27;;;;;;;23.60;13.80;;;;;;;1.03;100.00;60916.63;5108960;28;20452;-75
2022/03/08 01:27:55;;;;;;;20.73;12.37;;;;;;;0.47;100.00;60855.81;5109607;28;20538;-75
2022/03/08 01:30:24;;;;;;;21.90;12.40;;;;;;;0.85;100.00;60901.09;5108448;28;20603;-75
2022/03/08 01:32:53;;;;;;;21.07;12.63;;;;;;;1.22;100.00;60934.28;5109571;28;20519;-75
2022/03/08 01:35:21;;;;;;;21.33;12.40;;;;;;;1.35;100.00;60943.06;5109376;28;20437;-75
2022/03/08 01:37:52;;;;;;;22.77;13.30;;;;;;;1.22;100.00;60936.78;5109008;28;20984;-74
2022/03/08 01:40:20;;;;;;;21.13;11.97;;;;;;;1.18;100.00;60930.03;5109455;28;20433;-74
2022/03/08 01:42:52;;;;;;;24.00;12.70;;;;;;;1.38;100.00;60951.25;5109055;28;20519;-76
2022/03/08 01:45:22;;;;;;;21.33;12.90;;;;;;;0.99;100.00;60904.88;5109364;28;20476;-75
2022/03/08 01:47:54;;;;;;;21.50;12.17;;;;;;;1.15;100.00;60929.88;5109187;28;20449;-75
2022/03/08 01:50:23;;;;;;;21.73;12.70;;;;;;;1.12;100.00;60924.19;5108939;28;20440;-76
2022/03/08 01:53:00;;;;;;;20.90;12.77;;;;;;;1.06;100.00;60917.31;5108932;28;20483;-74
2022/03/08 01:55:28;;;;;;;22.87;13.13;;;;;;;0.26;100.00;60833.03;5109664;28;20432;-74
2022/03/08 01:58:03;;;;;;;25.27;13.57;;;;;;;1.09;100.00;60920.50;5088195;28;20499;-76
2022/03/08 02:00:32;;;;;;;23.57;13.47;;;;;;;0.88;100.00;60900.72;5088694;28;20438;-74
2022/03/08 02:03:00;;;;;;;21.63;13.13;;;;;;;1.00;100.00;60910.94;5088444;28;20787;-74
2022/03/08 02:05:29;;;;;;;22.13;13.20;;;;;;;1.14;100.00;60920.78;5088156;28;20940;-74
2022/03/08 02:07:58;;;;;;;22.17;13.00;;;;;;;1.08;100.00;60921.94;5100892;28;20477;-75
2022/03/08 02:10:27;;;;;;;24.63;13.20;;;;;;;0.40;100.00;60855.91;5094889;28;20444;-75
2022/03/08 02:12:57;;;;;;;26.23;13.67;;;;;;;0.64;100.00;60876.34;5094986;28;20571;-75
2022/03/08 02:15:27;;;;;;;23.10;12.97;;;;;;;0.85;100.00;60890.53;5094892;28;20442;-73
2022/03/08 02:17:57;;;;;;;25.53;14.27;;;;;;;0.82;100.00;60892.91;5094707;28;20481;-75
2022/03/08 02:20:26;;;;;;;22.00;13.03;;;;;;;0.91;100.00;60898.91;5094780;28;20437;-75
2022/03/08 02:22:57;;;;;;;21.17;11.80;;;;;;;0.93;100.00;60906.53;5094404;28;20445;-74
2022/03/08 02:25:27;;;;;;;22.93;12.57;;;;;;;0.17;100.00;60825.97;5095205;28;20851;-76
2022/03/08 02:27:57;;;;;;;24.00;13.10;;;;;;;0.59;100.00;60871.03;5095052;28;20481;-74
2022/03/08 02:30:26;;;;;;;22.73;13.20;;;;;;;0.64;100.00;60873.31;5094567;28;20438;-75
2022/03/08 02:32:55;;;;;;;23.80;12.37;;;;;;;0.53;100.00;60864.66;5094619;28;20434;-74
2022/03/08 02:35:25;;;;;;;25.00;13.33;;;;;;;0.82;100.00;60892.91;5094230;28;20615;-74
2022/03/08 02:37:57;;;;;;;25.13;13.43;;;;;;;0.82;100.00;60897.94;5096839;28;20481;-75
2022/03/08 02:40:26;;;;;;;24.33;13.43;;;;;;;0.88;100.00;60898.22;5093608;28;20445;-75
2022/03/08 02:42:54;;;;;;;25.77;13.70;;;;;;;0.55;100.00;60863.75;5094414;28;20506;-75
2022/03/08 02:45:26;;;;;;;25.00;13.97;;;;;;;0.76;100.00;60886.56;5094517;28;20464;-74
2022/03/08 02:47:54;;;;;;;25.77;13.97;;;;;;;0.68;100.00;60878.06;5096931;28;20829;-75
2022/03/08 02:50:23;;;;;;;25.63;13.97;;;;;;;0.28;100.00;60835.69;5096689;28;20525;-74
2022/03/08 02:52:52;;;;;;;26.40;14.87;;;;;;;0.52;100.00;60871.13;5093456;28;20965;-76
2022/03/08 02:55:26;;;;;;;25.43;14.00;;;;;;;0.79;100.00;60889.72;5093595;28;20442;-73
2022/03/08 02:57:55;;;;;;;26.40;14.30;;;;;;;0.54;100.00;60863.22;5092886;28;20485;-76
2022/03/08 03:00:25;;;;;;;24.90;14.37;;;;;;;0.54;100.00;60863.22;5093048;28;20495;-74
2022/03/08 03:02:53;;;;;;;25.37;14.73;;;;;;;0.40;100.00;60848.41;5093852;28;20499;-76
2022/03/08 03:05:22;;;;;;;27.23;15.23;;;;;;;0.48;100.00;60856.88;5093059;28;20445;-75
2022/03/08 03:07:51;;;;;;;28.07;14.63;;;;;;;0.21;100.00;60830.75;5094303;28;20478;-76
2022/03/08 03:10:26;;;;;;;26.87;14.40;;;;;;;0.35;100.00;60843.09;5093897;28;20437;-74
2022/03/08 03:12:56;;;;;;;27.57;14.37;;;;;;;0.29;100.00;60841.19;5093939;28;20510;-75
2022/03/08 03:15:24;;;;;;;29.03;15.73;;;;;;;-0.22;100.00;60782.72;5093628;28;20433;-76
2022/03/08 03:17:51;;;;;;;30.63;15.30;;;;;;;0.27;100.00;60834.59;5093467;28;20481;-74
2022/03/08 03:20:21;;;;;;;26.27;14.87;;;;;;;0.51;100.00;60862.56;5092319;28;20446;-75
2022/03/08 03:22:51;;;;;;;27.37;15.17;;;;;;;0.48;100.00;60861.88;5093509;28;20453;-76
2022/03/08 03:25:21;;;;;;;27.20;13.67;;;;;;;0.17;100.00;60823.47;5093494;28;20469;-74
2022/03/08 03:27:49;;;;;;;26.43;14.20;;;;;;;0.01;100.00;60802.06;5093410;28;20492;-74
2022/03/08 03:30:19;;;;;;;24.60;13.10;;;;;;;0.46;100.00;60854.75;5093349;28;20502;-75
2022/03/08 03:32:47;;;;;;;29.17;15.07;;;;;;;0.31;100.00;60838.84;5093298;28;20591;-75
2022/03/08 03:35:15;;;;;;;26.00;14.17;;;;;;;0.25;100.00;60832.50;5093474;28;20562;-76
2022/03/08 03:37:48;;;;;;;29.20;14.90;;;;;;;0.32;100.00;60842.44;5093763;28;20580;-75
2022/03/08 03:40:17;;;;;;;28.47;15.10;;;;;;;0.40;100.00;60848.41;5093956;28;20434;-76
2022/03/08 03:42:45;;;;;;;28.60;15.23;;;;;;;0.40;100.00;60847.84;5093180;28;20549;-75
2022/03/08 03:45:16;;;;;;;27.57;14.93;;;;;;;0.46;100.00;60854.22;5092780;28;20446;-74
2022/03/08 03:47:43;;;;;;;28.53;15.17;;;;;;;-0.17;100.00;60790.50;5092070;28;20452;-75
2022/03/08 03:50:10;;;;;;;25.97;14.47;;;;;;;0.53;100.00;60864.66;5092860;28;20499;-73
2022/03/08 03:52:39;;;;;;;23.00;12.57;;;;;;;0.47;100.00;60853.31;5093143;28;20443;-74
2022/03/08 03:55:07;;;;;;;24.90;14.17;;;;;;;0.26;100.00;60836.06;5093095;28;20555;-73
2022/03/08 03:57:35;;;;;;;29.33;15.73;;;;;;;0.42;100.00;60853.03;5092793;28;20480;-73
2022/03/08 04:00:08;;;;;;;28.03;14.77;;;;;;;0.54;100.00;60863.22;5091494;28;20442;-74
2022/03/08 04:02:39;;;;;;;30.27;15.60;;;;;;;0.47;100.00;60860.28;5092912;28;20967;-74
2022/03/08 04:05:07;;;;;;;26.60;13.47;;;;;;;0.48;100.00;60851.88;5092582;28;20866;-75
2022/03/08 04:07:35;;;;;;;25.43;14.77;;;;;;;0.34;100.00;60846.50;5092369;28;20530;-76
2022/03/08 04:10:06;;;;;;;26.83;14.37;;;;;;;0.37;100.00;60845.22;5092616;28;20437;-74
2022/03/08 04:12:33;;;;;;;26.73;14.57;;;;;;;-0.28;100.00;60776.34;5091303;28;20963;-75
2022/03/08 04:15:04;;;;;;;29.53;15.13;;;;;;;0.27;100.00;60834.59;5092204;28;20453;-74
2022/03/08 04:17:39;;;;;;;30.63;15.57;;;;;;;0.25;100.00;60835.00;5091593;28;20478;-76
2022/03/08 04:20:09;;;;;;;30.67;15.63;;;;;;;0.63;100.00;60872.75;5092449;28;20433;-75
2022/03/08 04:22:40;;;;;;;28.80;15.30;;;;;;;0.33;100.00;60835.97;5092337;28;20442;-75
2022/03/08 04:25:12;;;;;;;29.80;15.60;;;;;;;0.62;100.00;60869.22;5092755;28;20510;-73
2022/03/08 04:27:40;;;;;;;29.90;16.20;;;;;;;0.59;100.00;60868.53;5092326;28;20461;-74
2022/03/08 04:30:13;;;;;;;32.30;17.27;;;;;;;0.24;100.00;60835.91;5090898;28;20496;-75
2022/03/08 04:32:42;;;;;;;28.83;15.57;;;;;;;0.57;100.00;60868.91;5092248;28;20442;-76
2022/03/08 04:35:12;;;;;;;35.40;17.50;;;;;;;0.63;100.00;60877.78;5092138;28;20449;-75
2022/03/08 04:37:39;;;;;;;31.27;16.53;;;;;;;0.63;100.00;60872.75;5092161;28;20485;-75
2022/03/08 04:40:08;;;;;;;34.73;17.90;;;;;;;0.37;100.00;60844.66;5092658;28;20438;-74
2022/03/08 04:42:37;;;;;;;35.87;18.50;;;;;;;0.08;100.00;60822.00;5091986;28;20438;-75
2022/03/08 04:45:05;;;;;;;33.47;19.83;;;;;;;-0.28;100.00;60776.34;5092632;28;20442;-74
2022/03/08 04:50:17;;;;;;;34.00;16.50;;;;;;;0.73;100.00;60880.31;5094841;28;20434;-75
2022/03/08 04:52:47;;;;;;;34.13;17.80;;;;;;;0.72;100.00;60881.78;5092231;28;20529;-74
2022/03/08 04:55:15;;;;;;;33.17;17.67;;;;;;;0.80;100.00;60890.81;5092118;28;20461;-74
2022/03/08 04:57:43;;;;;;;37.60;18.53;;;;;;;0.77;100.00;60890.13;5091784;28;20517;-74
2022/03/08 05:00:14;;;;;;;33.43;17.17;;;;;;;0.87;100.00;60897.16;5092024;28;20448;-74
2022/03/08 05:02:44;;;;;;;31.47;16.67;;;;;;;0.69;100.00;60878.59;5090679;28;20438;-74
2022/03/08 05:05:13;;;;;;;31.83;17.57;;;;;;;0.63;100.00;60875.28;5091749;28;20467;-73
2022/03/08 05:07:42;;;;;;;33.90;17.10;;;;;;;0.46;100.00;60857.25;5092048;28;20535;-75
2022/03/08 05:10:13;;;;;;;37.27;17.67;;;;;;;-0.16;100.00;60789.06;5092018;28;20541;-76
2022/03/08 05:15:24;;;;;;;32.47;18.03;;;;;;;0.53;100.00;60862.16;5091777;28;20437;-74
2022/03/08 05:17:52;;;;;;;35.63;18.23;;;;;;;0.57;100.00;60870.88;5092101;28;20485;-74
2022/03/08 05:20:22;;;;;;;31.83;16.23;;;;;;;0.27;100.00;60837.13;5091743;28;20434;-73
2022/03/08 05:22:50;;;;;;;37.93;19.47;;;;;;;0.68;100.00;60873.06;5091290;28;20446;-75
2022/03/08 05:25:20;;;;;;;33.90;18.83;;;;;;;0.64;100.00;60873.84;5091588;28;20487;-72
2022/03/08 05:27:47;;;;;;;36.87;18.97;;;;;;;0.67;100.00;60877.00;5091748;28;20442;-75
2022/03/08 05:30:14;;;;;;;38.03;17.73;;;;;;;0.57;100.00;60866.41;5091963;28;20503;-75
2022/03/08 05:32:43;;;;;;;35.10;18.23;;;;;;;0.49;100.00;60862.94;5091703;28;20433;-75
2022/03/08 05:35:12;;;;;;;34.97;18.30;;;;;;;0.81;100.00;60889.34;5091721;28;20441;-73
2022/03/08 05:37:39;;;;;;;36.57;19.70;;;;;;;0.85;100.00;60901.09;5091564;28;20979;-74
2022/03/08 05:40:12;;;;;;;38.63;19.50;;;;;;;0.82;100.00;60892.38;5092123;28;20498;-74
2022/03/08 05:42:40;;;;;;;34.57;18.23;;;;;;;0.48;100.00;60856.88;5092792;28;20516;-75
2022/03/08 05:45:10;;;;;;;32.20;17.73;;;;;;;0.72;100.00;60882.31;5095479;28;20433;-74
2022/03/08 05:47:37;;;;;;;34.40;18.10;;;;;;;0.55;100.00;60864.28;5095308;28;20502;-76
2022/03/08 05:50:04;;;;;;;41.60;19.03;;;;;;;0.64;100.00;60876.34;5094779;28;20822;-75
2022/03/08 05:52:33;;;;;;;36.07;18.53;;;;;;;0.80;100.00;60890.81;5094914;28;20944;-73
2022/03/08 05:55:01;;;;;;;39.73;19.47;;;;;;;0.86;100.00;60896.63;5095051;28;20440;-74
2022/03/08 05:57:31;;;;;;;34.73;18.10;;;;;;;0.96;100.00;60906.69;5094918;28;20570;-74
2022/03/08 05:59:58;;;;;;;37.57;18.83;;;;;;;0.60;100.00;60869.59;5095140;28;20532;-75
2022/03/08 06:02:25;;;;;;;33.57;18.47;;;;;;;1.08;100.00;60924.44;5095023;28;20875;-75
2022/03/08 06:07:39;;;;;;;35.17;17.63;;;;;;;1.26;100.00;60944.06;5094760;28;20465;-76
2022/03/08 06:10:11;;;;;;;38.17;18.30;;;;;;;1.25;100.00;60937.97;5095646;28;20503;-75
2022/03/08 06:12:44;;;;;;;39.63;20.67;;;;;;;0.95;100.00;60906.16;5095025;28;20502;-74
2022/03/08 06:17:59;;;;;;;37.30;20.13;;;;;;;0.17;100.00;60826.53;5094372;28;20572;-74
2022/03/08 06:20:27;;;;;;;49.57;24.53;;;;;;;1.41;100.00;60956.94;5095018;28;20981;-76
2022/03/08 06:22:55;;;;;;;42.07;21.23;;;;;;;1.41;100.00;60956.94;5093573;28;20446;-74
2022/03/08 06:25:22;;;;;;;36.43;19.53;;;;;;;1.41;100.00;60954.94;5093334;28;20442;-76
2022/03/08 06:27:51;;;;;;;35.77;18.73;;;;;;;1.68;100.00;60983.06;5094835;28;20430;-75
2022/03/08 06:30:18;;;;;;;31.30;18.17;;;;;;;1.62;100.00;60976.72;5094691;28;20487;-74
2022/03/08 06:32:47;;;;;;;38.37;18.03;;;;;;;1.78;100.00;60993.69;5094387;28;20498;-75
2022/03/08 06:35:14;;;;;;;33.97;18.73;;;;;;;2.04;100.00;61016.28;5094613;28;20499;-75
2022/03/08 06:37:46;;;;;;;34.57;18.20;;;;;;;1.90;100.00;61013.97;5094509;28;20485;-73
2022/03/08 06:40:14;;;;;;;36.90;17.80;;;;;;;2.32;100.00;61056.03;5095584;28;20426;-74
2022/03/08 06:42:46;;;;;;;30.97;17.20;;;;;;;2.72;100.00;61092.97;5094187;28;20449;-76
2022/03/08 06:45:30;;;;;;;31.60;17.10;;;;;;;2.84;100.00;61105.22;5094460;28;20430;-75
2022/03/08 06:48:10;;;;;;;35.63;18.13;;;;;;;2.76;100.00;61101.75;5094499;28;20447;-75
2022/03/08 06:50:38;;;;;;;31.10;17.53;;;;;;;2.72;100.00;61098.00;5094127;28;20448;-76
2022/03/08 06:53:06;;;;;;;31.10;18.00;;;;;;;3.29;100.00;61153.56;5094727;28;20437;-75
2022/03/08 06:55:36;;;;;;;29.10;17.00;;;;;;;3.27;100.00;61150.91;5094950;28;20554;-76
2022/03/08 06:58:03;;;;;;;27.47;15.93;;;;;;;3.34;100.00;61153.31;5095381;28;21079;-75
2022/03/08 07:00:31;;;;;;;28.33;16.70;;;;;;;3.63;100.00;61188.66;5095473;28;20541;-73
2022/03/08 07:03:00;;;;;;;29.80;17.40;;;;;;;3.74;100.00;61203.41;5096321;28;20422;-74
2022/03/08 07:05:26;;;;;;;27.33;15.57;;;;;;;3.54;100.00;61179.63;5097078;28;20774;-73
2022/03/08 07:07:53;;;;;;;31.70;17.27;;;;;;;3.18;100.00;61141.34;5095795;28;20572;-74
2022/03/08 07:10:21;;;;;;;30.33;16.90;;;;;;;3.62;100.00;61190.13;5096583;28;20442;-76
2022/03/08 07:12:48;;;;;;;32.37;17.83;;;;;;;2.98;100.00;61122.59;5095850;28;20442;-73
2022/03/08 07:15:15;;;;;;;30.00;18.03;;;;;;;3.53;100.00;61183.59;5094194;28;20446;-76
2022/03/08 07:17:47;;;;;;;32.07;17.37;;;;;;;3.14;100.00;61139.63;5093936;28;20566;-74
2022/03/08 07:22:59;;;;;;;30.73;17.20;;;;;;;3.20;100.00;61138.44;5092999;28;20433;-75
2022/03/08 07:25:26;;;;;;;32.50;17.23;;;;;;;2.99;100.00;61121.16;5093685;28;20473;-76
2022/03/08 07:27:55;;;;;;;34.27;17.27;;;;;;;3.10;100.00;61132.84;5093141;28;20462;-77
2022/03/08 07:30:26;;;;;;;32.23;17.77;;;;;;;3.14;100.00;61137.09;5092787;28;20773;-75
2022/03/08 07:32:54;;;;;;;30.07;17.40;;;;;;;3.00;100.00;61122.22;5092748;28;20434;-76
2022/03/08 07:35:22;;;;;;;31.93;18.30;;;;;;;2.02;100.00;61024.19;5093425;28;20430;-74
2022/03/08 07:37:51;;;;;;;30.80;17.67;;;;;;;2.24;100.00;61036.97;5091787;28;20484;-76
2022/03/08 07:40:19;;;;;;;33.00;18.97;;;;;;;2.73;100.00;61093.50;5093108;28;20448;-75
2022/03/08 07:42:47;;;;;;;33.73;17.60;;;;;;;2.66;100.00;61091.63;5093248;28;20434;-76
2022/03/08 07:45:14;;;;;;;31.03;17.30;;;;;;;2.62;100.00;61081.84;5091748;28;20437;-75
2022/03/08 07:47:41;;;;;;;30.13;17.40;;;;;;;2.48;100.00;61062.44;5093220;28;20442;-75
2022/03/08 07:50:12;;;;;;;30.63;17.13;;;;;;;1.78;100.00;60998.72;5091710;28;20772;-74
2022/03/08 07:52:39;;;;;;;29.73;16.80;;;;;;;2.37;100.00;61055.81;5095512;28;20493;-73
2022/03/08 07:55:09;;;;;;;30.57;16.20;;;;;;;2.33;100.00;61054.06;5093250;28;20495;-75
2022/03/08 07:57:37;;;;;;;30.27;16.47;;;;;;;1.39;100.00;60952.81;5091264;28;20461;-77
2022/03/08 08:00:06;;;;;;;28.13;15.27;;;;;;;2.12;100.00;61026.75;5092864;28;20449;-77
2022/03/08 08:02:35;;;;;;;29.90;15.20;;;;;;;1.09;100.00;60920.50;5091606;28;20450;-77
2022/03/08 08:05:02;;;;;;;28.53;15.33;;;;;;;1.80;100.00;60997.78;5092110;28;20457;-76
2022/03/08 08:07:33;;;;;;;30.40;17.13;;;;;;;1.90;100.00;61008.94;5092177;28;20466;-76
2022/03/08 08:10:02;;;;;;;28.53;16.47;;;;;;;1.90;100.00;61005.88;5093029;28;20510;-76
2022/03/08 08:12:29;;;;;;;28.80;15.17;;;;;;;0.68;100.00;60883.09;5091461;28;20438;-76
2022/03/08 08:14:57;;;;;;;27.57;15.53;;;;;;;2.02;100.00;61018.63;5092669;28;20491;-77
2022/03/08 08:17:23;;;;;;;25.70;14.07;;;;;;;1.68;100.00;60983.06;5092492;28;20510;-75
2022/03/08 08:19:50;;;;;;;28.03;15.60;;;;;;;1.60;100.00;60972.06;5091143;28;20448;-76
2022/03/08 08:22:17;;;;;;;26.50;14.27;;;;;;;1.46;100.00;60959.72;5091603;28;20549;-74
2022/03/08 08:24:52;;;;;;;34.27;15.30;;;;;;;1.34;100.00;60949.50;5092468;28;20875;-76
2022/03/08 08:27:19;;;;;;;27.13;14.57;;;;;;;1.15;100.00;60926.84;5092841;28;20811;-74
2022/03/08 08:29:49;;;;;;;27.23;14.70;;;;;;;0.15;100.00;60821.34;5091649;28;20449;-75
2022/03/08 08:32:18;;;;;;;28.57;15.20;;;;;;;1.45;100.00;60959.19;5092619;28;20469;-75
2022/03/08 08:34:50;;;;;;;28.60;15.63;;;;;;;1.47;100.00;60960.81;5092264;28;20453;-77
2022/03/08 08:37:19;;;;;;;26.53;14.23;;;;;;;0.49;100.00;60857.94;5092408;28;20877;-74
2022/03/08 08:39:47;;;;;;;28.83;15.47;;;;;;;0.74;100.00;60894.47;5092370;28;20482;-77
2022/03/08 08:42:19;;;;;;;30.00;16.27;;;;;;;1.25;100.00;60937.47;5091808;28;20434;-75
2022/03/08 08:44:47;;;;;;;28.57;15.20;;;;;;;1.35;100.00;60948.06;5092263;28;20442;-74
2022/03/08 08:47:15;;;;;;;30.07;15.77;;;;;;;1.11;100.00;60922.63;5092019;28;20441;-75
2022/03/08 08:49:51;;;;;;;26.10;13.33;;;;;;;1.18;100.00;60930.03;5091958;28;20481;-76
2022/03/08 08:52:21;;;;;;;32.03;16.47;;;;;;;1.08;100.00;60924.44;5092002;28;20422;-74
2022/03/08 08:54:51;;;;;;;29.77;16.67;;;;;;;1.14;100.00;60925.78;5092156;28;20460;-76
2022/03/08 08:57:20;;;;;;;21.40;12.47;;;;;;;1.23;100.00;60935.34;5092184;28;20510;-77
2022/03/08 08:59:51;;;;;;;30.33;15.63;;;;;;;1.01;100.00;60912.53;5091694;28;20501;-74
2022/03/08 09:02:20;;;;;;;32.67;16.03;;;;;;;1.28;100.00;60940.63;5092020;28;20461;-75
2022/03/08 09:04:52;;;;;;;28.67;16.47;;;;;;;1.22;100.00;60936.78;5091770;28;20438;-77
2022/03/08 09:07:21;;;;;;;28.50;15.83;;;;;;;0.25;100.00;60835.00;5095122;28;20480;-74
2022/03/08 09:10:23;;;;;;;25.30;13.10;;;;;;;0.80;100.00;60893.31;5092502;28;20430;-76
2022/03/08 09:13:47;;;;;;;29.77;15.10;;;;;;;0.87;100.00;60897.69;5092905;28;20431;-75
2022/03/08 09:16:16;;;;;;;24.63;13.17;;;;;;;1.14;100.00;60925.78;5090820;28;20788;-75
2022/03/08 09:18:47;;;;;;;26.97;14.37;;;;;;;1.06;100.00;60919.81;5094470;28;20967;-74
2022/03/08 09:21:19;;;;;;;26.53;14.27;;;;;;;1.32;100.00;60947.38;5096857;28;20514;-75
2022/03/08 09:23:48;;;;;;;24.53;14.13;;;;;;;1.14;100.00;60928.28;5095938;28;20553;-75
2022/03/08 09:26:15;;;;;;;27.30;14.97;;;;;;;1.18;100.00;60935.03;5095708;28;20849;-75
2022/03/08 09:28:43;;;;;;;27.03;15.07;;;;;;;1.73;100.00;60988.41;5095770;28;20445;-75
2022/03/08 09:31:14;;;;;;;26.70;15.70;;;;;;;1.70;100.00;60985.19;5095707;28;20955;-74
2022/03/08 09:33:55;;;;;;;26.07;14.07;;;;;;;2.01;100.00;61018.13;5096599;28;20440;-76
2022/03/08 09:39:13;;;;;;;29.67;13.77;;;;;;;1.69;100.00;60984.66;5095581;28;20500;-74
2022/03/08 09:41:43;;;;;;;31.17;17.03;;;;;;;1.35;100.00;60948.06;5100051;28;20438;-77
2022/03/08 09:44:13;;;;;;;32.73;17.80;;;;;;;1.75;100.00;60990.53;5095468;28;20888;-77
2022/03/08 09:46:40;;;;;;;32.03;17.73;;;;;;;1.95;100.00;61016.22;5095927;28;20438;-76
2022/03/08 09:49:13;;;;;;;36.77;18.73;;;;;;;1.11;100.00;60922.63;5095533;28;20441;-75
2022/03/08 09:51:42;;;;;;;37.17;18.23;;;;;;;1.68;100.00;60983.06;5095386;28;20912;-76
2022/03/08 09:54:11;;;;;;;39.53;18.47;;;;;;;1.52;100.00;60968.59;5095375;28;20449;-76
2022/03/08 09:56:39;;;;;;;30.80;15.70;;;;;;;1.31;100.00;60946.34;5095210;28;20878;-75
2022/03/08 09:59:07;;;;;;;35.27;17.90;;;;;;;0.70;100.00;60884.66;5095243;28;20481;-78
2022/03/08 10:01:34;;;;;;;39.13;19.10;;;;;;;1.13;100.00;60925.25;5095843;28;20463;-74
2022/03/08 10:04:03;;;;;;;35.73;18.03;;;;;;;0.93;100.00;60903.53;5095289;28;20472;-76
2022/03/08 10:06:44;;;;;;;38.20;20.63;;;;;;;0.72;100.00;60882.31;5095202;28;20481;-77
2022/03/08 10:09:18;;;;;;;40.33;19.90;;;;;;;0.96;100.00;60906.69;5093752;28;20583;-75
2022/03/08 10:14:38;;;;;;;35.43;19.47;;;;;;;0.61;100.00;60865.09;5095156;28;20579;-75
2022/03/08 10:17:11;;;;;;;34.80;19.00;;;;;;;1.02;100.00;60913.59;5093764;28;20496;-78
2022/03/08 10:19:46;;;;;;;38.40;17.53;;;;;;;1.16;100.00;60923.44;5094423;28;20493;-77
2022/03/08 10:22:30;;;;;;;33.53;18.07;;;;;;;1.28;100.00;60940.63;5094724;28;20429;-76
2022/03/08 10:25:17;;;;;;;36.60;18.00;;;;;;;1.40;100.00;60953.38;5095467;28;20521;-74
2022/03/08 10:28:00;;;;;;;34.80;17.07;;;;;;;1.22;100.00;60932.28;5094577;28;20496;-78
2022/03/08 10:30:47;;;;;;;37.33;18.07;;;;;;;1.23;100.00;60937.84;5094801;28;20453;-75
2022/03/08 10:33:19;;;;;;;39.13;19.43;;;;;;;1.28;100.00;60938.13;5094594;28;20440;-75
2022/03/08 10:35:47;;;;;;;34.70;18.30;;;;;;;0.17;100.00;60829.03;5093800;28;20445;-75
2022/03/08 10:38:16;;;;;;;30.73;17.43;;;;;;;1.48;100.00;60964.38;5094613;28;20468;-75
2022/03/08 10:40:45;;;;;;;33.20;18.30;;;;;;;1.41;100.00;60957.47;5094424;28;20425;-76
2022/03/08 10:43:19;;;;;;;35.13;18.00;;;;;;;1.37;100.00;60950.72;5094279;28;20441;-75
2022/03/08 10:45:48;;;;;;;36.43;18.63;;;;;;;0.88;100.00;60895.69;5094576;28;20456;-75
2022/03/08 10:48:20;;;;;;;42.80;20.90;;;;;;;1.49;100.00;60965.44;5094171;28;20441;-75
2022/03/08 10:50:50;;;;;;;41.67;20.47;;;;;;;1.31;100.00;60949.34;5094960;28;21067;-74
2022/03/08 10:53:18;;;;;;;33.33;19.27;;;;;;;1.09;100.00;60920.50;5094332;28;20887;-76
2022/03/08 10:55:47;;;;;;;42.73;20.30;;;;;;;1.19;100.00;60936.63;5094064;28;20521;-75
2022/03/08 10:58:15;;;;;;;40.87;19.43;;;;;;;0.61;100.00;60870.66;5094005;28;20514;-74
2022/03/08 11:00:46;;;;;;;41.03;20.10;;;;;;;0.30;100.00;60835.28;5093874;28;20537;-75
2022/03/08 11:03:17;;;;;;;39.47;19.03;;;;;;;0.97;100.00;60907.75;5094739;28;20434;-75
2022/03/08 11:05:47;;;;;;;41.80;20.20;;;;;;;0.96;100.00;60906.69;5093393;28;20470;-74
2022/03/08 11:08:16;;;;;;;39.53;19.03;;;;;;;0.95;100.00;60908.66;5093595;28;20578;-75
2022/03/08 11:10:46;;;;;;;35.23;18.47;;;;;;;0.92;100.00;60897.44;5092476;28;20438;-76
2022/03/08 11:13:17;;;;;;;39.13;18.60;;;;;;;1.20;100.00;60932.16;5094440;28;20525;-75
2022/03/08 11:15:46;;;;;;;36.03;17.47;;;;;;;1.06;100.00;60920.34;5095364;28;20495;-76
2022/03/08 11:18:17;;;;;;;35.87;18.37;;;;;;;1.11;100.00;60922.63;5093637;28;20516;-75
2022/03/08 11:20:46;;;;;;;32.93;17.17;;;;;;;0.89;100.00;60899.28;5093725;28;20485;-75
2022/03/08 11:23:16;;;;;;;32.23;17.13;;;;;;;0.60;100.00;60874.59;5092186;28;20524;-76
2022/03/08 11:25:47;;;;;;;35.30;18.10;;;;;;;1.12;100.00;60923.66;5093483;28;20421;-75
2022/03/08 11:28:16;;;;;;;38.53;19.43;;;;;;;1.17;100.00;60934.50;5099030;28;20460;-76
2022/03/08 11:30:52;;;;;;;31.57;16.80;;;;;;;1.15;100.00;60931.88;5093265;28;20944;-75
2022/03/08 11:33:33;;;;;;;34.33;18.40;;;;;;;1.10;100.00;60921.53;5093295;28;20906;-75
2022/03/08 11:36:08;;;;;;;35.60;18.23;;;;;;;0.97;100.00;60913.28;5093342;28;20426;-74
2022/03/08 11:38:36;;;;;;;33.40;17.50;;;;;;;0.78;100.00;60888.13;5092931;28;20455;-76
2022/03/08 11:41:06;;;;;;;36.03;18.30;;;;;;;0.94;100.00;60904.56;5091967;28;20507;-75
2022/03/08 11:43:44;;;;;;;35.77;19.00;;;;;;;0.55;100.00;60869.28;5093032;28;21017;-75
2022/03/08 11:46:13;;;;;;;38.60;18.90;;;;;;;1.19;100.00;60931.63;5093249;28;20510;-75
2022/03/08 11:48:53;;;;;;;38.50;19.87;;;;;;;1.28;100.00;60943.16;5092886;28;20801;-76
2022/03/08 11:51:23;;;;;;;41.93;19.27;;;;;;;0.93;100.00;60908.53;5093729;28;20538;-75
2022/03/08 11:54:01;;;;;;;34.30;19.20;;;;;;;1.32;100.00;60944.88;5092770;28;20803;-76
2022/03/08 11:56:30;;;;;;;34.03;18.73;;;;;;;1.40;100.00;60953.38;5091618;28;20462;-75
2022/03/08 11:59:11;;;;;;;31.47;17.27;;;;;;;1.17;100.00;60926.47;5092850;28;20554;-75
2022/03/08 12:01:40;;;;;;;34.43;18.10;;;;;;;1.34;100.00;60947.53;5092572;28;20540;-74
2022/03/08 12:04:11;;;;;;;33.13;16.97;;;;;;;1.01;100.00;60914.50;5092739;28;20436;-74